Corona Emblem — 3FHF8 — position and weather

sailwx.info

Track history (hours):
 
Tides and Currents Weather Stations Pressure Air Temp Water Temp Dewpoint Dewpoint Depression Visibility Wind Speed Wind Dir Waves Ship Positions

Corona Emblem

Last reported at 2015-Jun-28 20:23 UTC. Time now 2015-Jul-03 12:23 UTC.
Position S 26°45' E 153°52'.

Length 230 m; beam 36 m.

Type: Cargo ship. MMSI: 354224000.

Date/timePositionNaut miles runAvg speedWind from/ knotsBaromVisibWave heightAir tempDewpointWater temp
2015-Jun-28 20:23S 26°45' E 153°52'9 8.9
2015-Jun-28 19:25S 26°53' E 153°52'8 9.1
2015-Jun-28 18:33S 27°01' E 153°51'9 9.1
2015-Jun-28 17:34S 27°10' E 153°51'9 9.1
2015-Jun-28 16:34S 27°19' E 153°51'18 8.9
2015-Jun-28 14:32S 27°37' E 153°51'8 8.6
2015-Jun-28 13:33S 27°45' E 153°49'9 8.8
2015-Jun-28 12:33S 27°54' E 153°48'28110.0
2015-Jun-27 08:29S 32°29' E 152°38'1010.6
2015-Jun-27 07:34S 32°36' E 152°31'1110.7
2015-Jun-27 06:33S 32°44' E 152°22'1010.2
2015-Jun-27 05:34S 32°51' E 152°13'1110.8
2015-Jun-27 04:34S 32°54' E 152°01'1010.0
2015-Jun-27 03:34S 32°55' E 151°49'3 3.2
2015-Jun-27 02:31S 32°53' E 151°46'0 0.0
2015-Jun-27 01:31S 32°53' E 151°46'0 0.0
2015-Jun-27 00:28S 32°53' E 151°46'0 0.0
2015-Jun-26 23:28S 32°53' E 151°46'0 0.0
2015-Jun-26 22:28S 32°53' E 151°46'0 0.0
2015-Jun-26 21:29S 32°53' E 151°46'0 0.0
2015-Jun-26 20:31S 32°53' E 151°46'0 0.0
2015-Jun-26 19:25S 32°53' E 151°46'0 0.0
2015-Jun-26 18:31S 32°53' E 151°46'0 0.0
2015-Jun-26 17:28S 32°53' E 151°46'0 0.0
2015-Jun-26 16:23S 32°53' E 151°46'0 0.0
2015-Jun-26 15:31S 32°53' E 151°46'0 0.0
2015-Jun-26 14:31S 32°53' E 151°46'0 0.0
2015-Jun-26 13:32S 32°53' E 151°46'0 0.0
2015-Jun-26 12:31S 32°53' E 151°46'0 0.0
2015-Jun-26 11:28S 32°53' E 151°46'0 0.0
2015-Jun-26 10:32S 32°53' E 151°46'2 2.3
2015-Jun-26 09:33S 32°55' E 151°47'7 7.1
2015-Jun-26 08:33S 33°02' E 151°50'18 0.5
2015-Jun-24 22:13S 33°18' E 151°40'0 0.1
2015-Jun-24 21:31S 33°18' E 151°40'0 0.1
2015-Jun-24 18:19S 33°18' E 151°40'10 1.2
2015-Jun-24 10:08S 33°17' E 151°52'4 6.3
2015-Jun-24 09:32S 33°15' E 151°56'3 2.0
2015-Jun-24 08:11S 33°13' E 151°57'1 1.9
2015-Jun-24 07:32S 33°12' E 151°58'3 2.6
2015-Jun-24 06:32S 33°09' E 151°59'1010.1
2015-Jun-24 05:33S 33°03' E 152°08'1413.5
2015-Jun-24 04:33S 32°52' E 152°17'1413.6
2015-Jun-24 03:33S 32°42' E 152°28'1312.7
2015-Jun-24 02:33S 32°32' E 152°38'1311.7
2015-Jun-24 01:26S 32°20' E 152°44'1112.7
2015-Jun-24 00:33S 32°10' E 152°50'1413.0
2015-Jun-23 23:30S 31°58' E 152°58'1614.2
2015-Jun-23 22:24S 31°44' E 153°06'239 6.5
2015-Jun-22 09:31S 27°48' E 153°48'2512.4
2015-Jun-22 07:30S 27°23' E 153°51'1212.6
2015-Jun-22 06:32S 27°11' E 153°51'  
Track history (hours):
 
Tides and Currents Weather Stations Pressure Air Temp Water Temp Dewpoint Dewpoint Depression Visibility Wind Speed Wind Dir Waves Ship Positions

Corona Emblem

Last reported at 2015-Jun-28 20:23 UTC. Time now 2015-Jul-03 12:23 UTC.
Position S 26°45' E 153°52'.

Length 230 m; beam 36 m.

Type: Cargo ship. MMSI: 354224000.

Date/timePositionNaut miles runAvg speedWind from/ knotsBaromVisibWave heightAir tempDewpointWater temp
2015-Jun-28 20:23S 26°45' E 153°52'9 8.9
2015-Jun-28 19:25S 26°53' E 153°52'8 9.1
2015-Jun-28 18:33S 27°01' E 153°51'9 9.1
2015-Jun-28 17:34S 27°10' E 153°51'9 9.1
2015-Jun-28 16:34S 27°19' E 153°51'18 8.9
2015-Jun-28 14:32S 27°37' E 153°51'8 8.6
2015-Jun-28 13:33S 27°45' E 153°49'9 8.8
2015-Jun-28 12:33S 27°54' E 153°48'28110.0
2015-Jun-27 08:29S 32°29' E 152°38'1010.6
2015-Jun-27 07:34S 32°36' E 152°31'1110.7
2015-Jun-27 06:33S 32°44' E 152°22'1010.2
2015-Jun-27 05:34S 32°51' E 152°13'1110.8
2015-Jun-27 04:34S 32°54' E 152°01'1010.0
2015-Jun-27 03:34S 32°55' E 151°49'3 3.2
2015-Jun-27 02:31S 32°53' E 151°46'0 0.0
2015-Jun-27 01:31S 32°53' E 151°46'0 0.0
2015-Jun-27 00:28S 32°53' E 151°46'0 0.0
2015-Jun-26 23:28S 32°53' E 151°46'0 0.0
2015-Jun-26 22:28S 32°53' E 151°46'0 0.0
2015-Jun-26 21:29S 32°53' E 151°46'0 0.0
2015-Jun-26 20:31S 32°53' E 151°46'0 0.0
2015-Jun-26 19:25S 32°53' E 151°46'0 0.0
2015-Jun-26 18:31S 32°53' E 151°46'0 0.0
2015-Jun-26 17:28S 32°53' E 151°46'0 0.0
2015-Jun-26 16:23S 32°53' E 151°46'0 0.0
2015-Jun-26 15:31S 32°53' E 151°46'0 0.0
2015-Jun-26 14:31S 32°53' E 151°46'0 0.0
2015-Jun-26 13:32S 32°53' E 151°46'0 0.0
2015-Jun-26 12:31S 32°53' E 151°46'0 0.0
2015-Jun-26 11:28S 32°53' E 151°46'0 0.0
2015-Jun-26 10:32S 32°53' E 151°46'2 2.3
2015-Jun-26 09:33S 32°55' E 151°47'7 7.1
2015-Jun-26 08:33S 33°02' E 151°50'18 0.5
2015-Jun-24 22:13S 33°18' E 151°40'0 0.1
2015-Jun-24 21:31S 33°18' E 151°40'0 0.1
2015-Jun-24 18:19S 33°18' E 151°40'10 1.2
2015-Jun-24 10:08S 33°17' E 151°52'4 6.3
2015-Jun-24 09:32S 33°15' E 151°56'3 2.0
2015-Jun-24 08:11S 33°13' E 151°57'1 1.9
2015-Jun-24 07:32S 33°12' E 151°58'3 2.6
2015-Jun-24 06:32S 33°09' E 151°59'1010.1
2015-Jun-24 05:33S 33°03' E 152°08'1413.5
2015-Jun-24 04:33S 32°52' E 152°17'1413.6
2015-Jun-24 03:33S 32°42' E 152°28'1312.7
2015-Jun-24 02:33S 32°32' E 152°38'1311.7
2015-Jun-24 01:26S 32°20' E 152°44'1112.7
2015-Jun-24 00:33S 32°10' E 152°50'1413.0
2015-Jun-23 23:30S 31°58' E 152°58'1614.2
2015-Jun-23 22:24S 31°44' E 153°06'239 6.5
2015-Jun-22 09:31S 27°48' E 153°48'2512.4
2015-Jun-22 07:30S 27°23' E 153°51'1212.6
2015-Jun-22 06:32S 27°11' E 153°51'  

Dump ship's entire track history